Time,TemperatureF,DewpointF,PressureIn,WindDirection,WindDirectionDegrees,WindSpeedMPH,WindSpeedGustMPH,Humidity,HourlyPrecipIn,Conditions,Clouds,dailyrainin,SoftwareType,DateUTC
2013-02-26 00:01:00,64.7,63.2,29.43,WSW,257,0.0,0.0,95,0.00,,,2.82,Wunderground v.1.13,2013-02-26 06:01:00,
2013-02-26 00:07:00,64.5,63.0,29.43,West,263,0.0,0.0,95,0.00,,,0.00,Wunderground v.1.13,2013-02-26 06:07:00,
2013-02-26 00:12:00,64.3,62.8,29.43,NW,305,0.0,0.0,95,0.00,,,0.00,Wunderground v.1.13,2013-02-26 06:12:00,
2013-02-26 00:18:00,64.2,62.7,29.43,WNW,292,0.0,0.0,95,0.00,,,0.00,Wunderground v.1.13,2013-02-26 06:18:00,
2013-02-26 00:24:00,63.7,62.2,29.43,WNW,294,0.0,0.0,95,0.00,,,0.00,Wunderground v.1.13,2013-02-26 06:24:00,
2013-02-26 00:29:00,63.4,61.9,29.43,West,264,0.0,0.0,95,0.00,,,0.00,Wunderground v.1.13,2013-02-26 06:29:00,
2013-02-26 00:35:00,62.9,61.4,29.43,West,265,0.0,0.0,95,0.00,,,0.00,Wunderground v.1.13,2013-02-26 06:35:00,
2013-02-26 00:40:00,62.7,61.2,29.44,West,280,0.0,0.0,95,0.00,,,0.00,Wunderground v.1.13,2013-02-26 06:40:00,
2013-02-26 00:46:00,62.4,60.9,29.44,West,275,0.0,0.0,95,0.00,,,0.00,Wunderground v.1.13,2013-02-26 06:46:00,
2013-02-26 00:52:00,62.1,60.7,29.44,SSW,202,0.0,0.0,95,0.00,,,0.00,Wunderground v.1.13,2013-02-26 06:52:00,
2013-02-26 00:57:00,62.0,60.6,29.44,SSW,202,0.0,0.0,95,0.00,,,0.00,Wunderground v.1.13,2013-02-26 06:57:00,
2013-02-26 01:03:00,61.8,60.4,29.44,West,278,0.0,0.0,95,0.00,,,0.00,Wunderground v.1.13,2013-02-26 07:03:00,
2013-02-26 01:08:00,61.3,59.9,29.44,SW,217,1.0,2.0,95,0.00,,,0.00,Wunderground v.1.13,2013-02-26 07:08:00,
2013-02-26 01:14:00,60.9,59.5,29.44,WNW,299,1.0,4.0,95,0.00,,,0.00,Wunderground v.1.13,2013-02-26 07:14:00,
2013-02-26 01:19:00,60.4,58.7,29.44,West,260,1.0,2.0,94,0.00,,,0.00,Wunderground v.1.13,2013-02-26 07:19:00,
2013-02-26 01:25:00,59.8,58.1,29.43,SW,223,1.0,1.0,94,0.00,,,0.00,Wunderground v.1.13,2013-02-26 07:25:00,
2013-02-26 01:31:00,59.5,57.8,29.43,WNW,288,1.0,1.0,94,0.00,,,0.00,Wunderground v.1.13,2013-02-26 07:31:00,
2013-02-26 01:36:00,59.0,57.0,29.44,West,274,1.0,1.0,93,0.00,,,0.00,Wunderground v.1.13,2013-02-26 07:36:00,
2013-02-26 01:42:00,58.9,56.9,29.44,West,278,0.0,1.0,93,0.00,,,0.00,Wunderground v.1.13,2013-02-26 07:42:00,
2013-02-26 01:47:00,58.6,56.9,29.44,West,278,0.0,0.0,94,0.00,,,0.00,Wunderground v.1.13,2013-02-26 07:47:00,
2013-02-26 01:53:00,58.4,56.4,29.43,WNW,296,0.0,0.0,93,0.00,,,0.00,Wunderground v.1.13,2013-02-26 07:53:00,
2013-02-26 01:59:00,58.1,56.1,29.43,NNW,335,0.0,0.0,93,0.00,,,0.00,Wunderground v.1.13,2013-02-26 07:59:00,
2013-02-26 02:04:00,57.8,55.8,29.43,NNW,335,0.0,0.0,93,0.00,,,0.00,Wunderground v.1.13,2013-02-26 08:04:00,
2013-02-26 02:10:00,57.6,55.6,29.44,NNW,329,0.0,0.0,93,0.00,,,0.00,Wunderground v.1.13,2013-02-26 08:10:00,
2013-02-26 02:15:00,57.5,55.5,29.44,West,272,0.0,0.0,93,0.00,,,0.00,Wunderground v.1.13,2013-02-26 08:15:00,
2013-02-26 02:21:00,57.2,54.9,29.45,NW,304,0.0,0.0,92,0.00,,,0.00,Wunderground v.1.13,2013-02-26 08:21:00,
2013-02-26 02:27:00,56.9,54.6,29.45,SSW,208,0.0,0.0,92,0.00,,,0.00,Wunderground v.1.13,2013-02-26 08:27:00,
2013-02-26 02:32:00,56.7,54.4,29.45,WNW,302,0.0,0.0,92,0.00,,,0.00,Wunderground v.1.13,2013-02-26 08:32:00,
2013-02-26 02:38:00,56.6,54.3,29.45,West,275,0.0,0.0,92,0.00,,,0.00,Wunderground v.1.13,2013-02-26 08:38:00,
2013-02-26 02:43:00,56.3,54.0,29.45,West,280,0.0,0.0,92,0.00,,,0.00,Wunderground v.1.13,2013-02-26 08:43:00,
2013-02-26 02:49:00,56.3,54.0,29.45,WNW,294,0.0,0.0,92,0.00,,,0.00,Wunderground v.1.13,2013-02-26 08:49:00,
2013-02-26 02:54:00,56.2,53.6,29.46,WNW,294,0.0,0.0,91,0.00,,,0.00,Wunderground v.1.13,2013-02-26 08:54:00,
2013-02-26 03:00:00,56.2,53.6,29.46,WNW,294,0.0,0.0,91,0.00,,,0.00,Wunderground v.1.13,2013-02-26 09:00:00,
2013-02-26 03:06:00,56.0,53.4,29.46,West,268,0.0,0.0,91,0.00,,,0.00,Wunderground v.1.13,2013-02-26 09:06:00,
2013-02-26 03:11:00,55.9,53.3,29.46,WNW,285,0.0,0.0,91,0.00,,,0.00,Wunderground v.1.13,2013-02-26 09:11:00,
2013-02-26 03:17:00,55.7,52.8,29.46,West,268,0.0,0.0,90,0.00,,,0.00,Wunderground v.1.13,2013-02-26 09:17:00,
2013-02-26 03:22:00,55.7,52.8,29.46,WNW,287,0.0,0.0,90,0.00,,,0.00,Wunderground v.1.13,2013-02-26 09:22:00,
2013-02-26 03:28:00,55.7,52.5,29.46,NW,311,1.0,8.0,89,0.00,,,0.00,Wunderground v.1.13,2013-02-26 09:28:00,
2013-02-26 03:34:00,55.9,52.4,29.46,NW,304,2.0,3.0,88,0.00,,,0.00,Wunderground v.1.13,2013-02-26 09:34:00,
2013-02-26 03:39:00,56.0,52.5,29.46,West,272,2.0,6.0,88,0.00,,,0.00,Wunderground v.1.13,2013-02-26 09:39:00,
2013-02-26 03:45:00,55.9,51.8,29.46,West,281,2.0,2.0,86,0.00,,,0.00,Wunderground v.1.13,2013-02-26 09:45:00,
2013-02-26 03:50:00,55.7,51.3,29.46,NW,315,3.0,8.0,85,0.00,,,0.00,Wunderground v.1.13,2013-02-26 09:50:00,
2013-02-26 03:56:00,55.9,51.5,29.47,WNW,298,4.0,4.0,85,0.00,,,0.00,Wunderground v.1.13,2013-02-26 09:56:00,
2013-02-26 04:02:00,55.7,50.9,29.47,NW,311,4.0,7.0,84,0.00,,,0.01,Wunderground v.1.13,2013-02-26 10:02:00,
2013-02-26 04:07:00,55.7,50.6,29.47,WNW,294,3.0,6.0,83,0.00,,,0.01,Wunderground v.1.13,2013-02-26 10:07:00,
2013-02-26 04:13:00,55.7,50.6,29.47,WNW,289,1.0,2.0,83,0.00,,,0.01,Wunderground v.1.13,2013-02-26 10:13:00,
2013-02-26 04:18:00,55.6,50.5,29.47,WNW,299,0.0,1.0,83,0.00,,,0.01,Wunderground v.1.13,2013-02-26 10:18:00,
2013-02-26 04:24:00,55.3,50.2,29.47,West,278,1.0,5.0,83,0.00,,,0.01,Wunderground v.1.13,2013-02-26 10:24:00,
2013-02-26 04:30:00,55.1,50.0,29.47,NW,312,1.0,3.0,83,0.00,,,0.01,Wunderground v.1.13,2013-02-26 10:30:00,
2013-02-26 04:35:00,55.1,49.7,29.47,West,268,1.0,1.0,82,0.00,,,0.01,Wunderground v.1.13,2013-02-26 10:35:00,
2013-02-26 04:41:00,54.8,49.1,29.48,WNW,287,1.0,4.0,81,0.00,,,0.01,Wunderground v.1.13,2013-02-26 10:41:00,
2013-02-26 04:46:00,54.7,49.3,29.48,WNW,302,2.0,2.0,82,0.00,,,0.01,Wunderground v.1.13,2013-02-26 10:46:00,
2013-02-26 04:52:00,54.5,48.8,29.49,WNW,301,2.0,3.0,81,0.00,,,0.01,Wunderground v.1.13,2013-02-26 10:52:00,
2013-02-26 04:58:00,54.7,49.0,29.49,WNW,296,2.0,2.0,81,0.00,,,0.01,Wunderground v.1.13,2013-02-26 10:58:00,
2013-02-26 05:03:00,54.7,49.0,29.49,West,275,1.0,1.0,81,0.00,,,0.01,Wunderground v.1.13,2013-02-26 11:03:00,
2013-02-26 05:09:00,54.5,48.8,29.50,WNW,282,0.0,0.0,81,0.00,,,0.01,Wunderground v.1.13,2013-02-26 11:09:00,
2013-02-26 05:14:00,54.4,48.7,29.50,WNW,296,1.0,3.0,81,0.00,,,0.01,Wunderground v.1.13,2013-02-26 11:14:00,
2013-02-26 05:20:00,54.2,48.5,29.50,WNW,292,1.0,1.0,81,0.00,,,0.01,Wunderground v.1.13,2013-02-26 11:20:00,
2013-02-26 05:26:00,54.1,48.4,29.50,NW,309,2.0,6.0,81,0.00,,,0.01,Wunderground v.1.13,2013-02-26 11:26:00,
2013-02-26 05:32:00,53.9,47.5,29.50,NW,306,4.0,9.0,79,0.00,,,0.01,Wunderground v.1.13,2013-02-26 11:32:00,
2013-02-26 05:38:00,53.8,47.1,29.51,WNW,295,5.0,6.0,78,0.00,,,0.01,Wunderground v.1.13,2013-02-26 11:38:00,
2013-02-26 05:43:00,53.6,46.9,29.51,NW,313,4.0,7.0,78,0.00,,,0.01,Wunderground v.1.13,2013-02-26 11:43:00,
2013-02-26 05:49:00,53.6,46.9,29.51,NW,318,3.0,6.0,78,0.00,,,0.01,Wunderground v.1.13,2013-02-26 11:49:00,
2013-02-26 05:55:00,53.5,46.8,29.52,NW,313,3.0,4.0,78,0.00,,,0.01,Wunderground v.1.13,2013-02-26 11:55:00,
2013-02-26 06:00:00,53.3,46.6,29.52,NW,305,2.0,2.0,78,0.00,,,0.01,Wunderground v.1.13,2013-02-26 12:00:00,
2013-02-26 06:06:00,53.2,46.2,29.53,NW,312,1.0,1.0,77,0.00,,,0.01,Wunderground v.1.13,2013-02-26 12:06:00,
2013-02-26 06:11:00,53.1,46.8,29.53,NW,311,1.0,1.0,79,0.00,,,0.01,Wunderground v.1.13,2013-02-26 12:11:00,
2013-02-26 06:17:00,52.6,46.3,29.53,NW,311,0.0,0.0,79,0.00,,,0.01,Wunderground v.1.13,2013-02-26 12:17:00,
2013-02-26 06:23:00,52.3,46.3,29.54,NW,311,0.0,0.0,80,0.00,,,0.01,Wunderground v.1.13,2013-02-26 12:23:00,
2013-02-26 06:28:00,52.2,46.5,29.54,NW,311,0.0,0.0,81,0.00,,,0.01,Wunderground v.1.13,2013-02-26 12:28:00,
2013-02-26 06:34:00,52.0,46.0,29.54,WNW,299,0.0,0.0,80,0.00,,,0.01,Wunderground v.1.13,2013-02-26 12:34:00,
2013-02-26 06:39:00,51.9,45.9,29.55,WNW,296,0.0,0.0,80,0.00,,,0.01,Wunderground v.1.13,2013-02-26 12:39:00,
2013-02-26 06:45:00,51.6,44.6,29.55,West,274,1.0,3.0,77,0.00,,,0.01,Wunderground v.1.13,2013-02-26 12:45:00,
2013-02-26 06:51:00,51.6,44.3,29.55,WNW,298,4.0,6.0,76,0.00,,,0.01,Wunderground v.1.13,2013-02-26 12:51:00,
2013-02-26 06:56:00,51.6,43.9,29.55,West,278,5.0,6.0,75,0.00,,,0.01,Wunderground v.1.13,2013-02-26 12:56:00,
2013-02-26 07:02:00,51.6,43.6,29.55,NW,304,5.0,7.0,74,0.00,,,0.01,Wunderground v.1.13,2013-02-26 13:02:00,
2013-02-26 07:08:00,51.4,43.0,29.57,West,267,5.0,11.0,73,0.00,,,0.01,Wunderground v.1.13,2013-02-26 13:08:00,
2013-02-26 07:13:00,51.3,42.6,29.57,NW,309,5.0,10.0,72,0.00,,,0.01,Wunderground v.1.13,2013-02-26 13:13:00,
2013-02-26 07:19:00,51.4,42.7,29.57,WNW,287,6.0,10.0,72,0.00,,,0.01,Wunderground v.1.13,2013-02-26 13:19:00,
2013-02-26 07:24:00,51.3,42.2,29.58,NW,320,7.0,7.0,71,0.00,,,0.01,Wunderground v.1.13,2013-02-26 13:24:00,
2013-02-26 07:30:00,51.3,41.8,29.58,WNW,285,6.0,9.0,70,0.00,,,0.01,Wunderground v.1.13,2013-02-26 13:30:00,
2013-02-26 07:36:00,51.1,41.7,29.59,WNW,295,6.0,8.0,70,0.00,,,0.01,Wunderground v.1.13,2013-02-26 13:36:00,
2013-02-26 07:41:00,51.0,40.4,29.59,NW,323,6.0,8.0,67,0.00,,,0.01,Wunderground v.1.13,2013-02-26 13:41:00,
2013-02-26 07:47:00,51.0,40.8,29.59,WNW,285,7.0,12.0,68,0.00,,,0.01,Wunderground v.1.13,2013-02-26 13:47:00,
2013-02-26 07:52:00,50.8,40.2,29.60,NW,304,8.0,10.0,67,0.00,,,0.01,Wunderground v.1.13,2013-02-26 13:52:00,
2013-02-26 07:58:00,50.8,39.8,29.60,WNW,296,9.0,12.0,66,0.00,,,0.01,Wunderground v.1.13,2013-02-26 13:58:00,
2013-02-26 08:04:00,50.8,39.8,29.60,WNW,282,10.0,14.0,66,0.00,,,0.01,Wunderground v.1.13,2013-02-26 14:04:00,
2013-02-26 08:10:00,51.0,39.6,29.61,NNW,347,9.0,12.0,65,0.00,,,0.01,Wunderground v.1.13,2013-02-26 14:10:00,
2013-02-26 08:16:00,51.1,40.5,29.61,WNW,291,9.0,12.0,67,0.00,,,0.01,Wunderground v.1.13,2013-02-26 14:16:00,
2013-02-26 08:21:00,51.1,39.7,29.61,NW,325,8.0,11.0,65,0.00,,,0.01,Wunderground v.1.13,2013-02-26 14:21:00,
2013-02-26 08:27:00,51.3,40.3,29.61,West,271,9.0,11.0,66,0.00,,,0.01,Wunderground v.1.13,2013-02-26 14:27:00,
2013-02-26 08:32:00,51.3,40.3,29.61,NW,312,10.0,12.0,66,0.00,,,0.01,Wunderground v.1.13,2013-02-26 14:32:00,
2013-02-26 08:38:00,51.3,39.5,29.62,NW,318,10.0,15.0,64,0.00,,,0.01,Wunderground v.1.13,2013-02-26 14:38:00,
2013-02-26 08:44:00,51.3,39.9,29.62,WNW,295,9.0,10.0,65,0.00,,,0.01,Wunderground v.1.13,2013-02-26 14:44:00,
2013-02-26 08:49:00,51.4,40.0,29.62,NNW,337,9.0,12.0,65,0.00,,,0.01,Wunderground v.1.13,2013-02-26 14:49:00,
2013-02-26 08:55:00,51.3,39.5,29.62,NW,312,11.0,11.0,64,0.00,,,0.01,Wunderground v.1.13,2013-02-26 14:55:00,
2013-02-26 09:01:00,51.1,39.3,29.62,WNW,294,11.0,11.0,64,0.00,,,0.01,Wunderground v.1.13,2013-02-26 15:01:00,
2013-02-26 09:06:00,51.1,39.7,29.62,WNW,289,9.0,10.0,65,0.00,,,0.01,Wunderground v.1.13,2013-02-26 15:06:00,
2013-02-26 09:12:00,51.4,40.4,29.62,SSW,200,5.0,7.0,66,0.00,,,0.01,Wunderground v.1.13,2013-02-26 15:12:00,
2013-02-26 09:17:00,51.4,40.0,29.62,NW,318,5.0,9.0,65,0.00,,,0.01,Wunderground v.1.13,2013-02-26 15:17:00,
2013-02-26 09:23:00,51.3,40.3,29.63,NW,322,7.0,7.0,66,0.00,,,0.01,Wunderground v.1.13,2013-02-26 15:23:00,
2013-02-26 09:29:00,51.3,40.3,29.63,WNW,296,6.0,9.0,66,0.00,,,0.01,Wunderground v.1.13,2013-02-26 15:29:00,
2013-02-26 09:34:00,51.3,39.9,29.63,WNW,294,6.0,6.0,65,0.00,,,0.01,Wunderground v.1.13,2013-02-26 15:34:00,
2013-02-26 09:40:00,51.4,40.4,29.63,NNW,347,7.0,7.0,66,0.00,,,0.01,Wunderground v.1.13,2013-02-26 15:40:00,
2013-02-26 09:46:00,51.6,40.6,29.63,West,274,7.0,8.0,66,0.00,,,0.01,Wunderground v.1.13,2013-02-26 15:46:00,
2013-02-26 09:52:00,51.9,40.5,29.63,NNW,339,5.0,8.0,65,0.00,,,0.01,Wunderground v.1.13,2013-02-26 15:52:00,
2013-02-26 09:57:00,52.0,40.6,29.63,WNW,299,5.0,7.0,65,0.00,,,0.01,Wunderground v.1.13,2013-02-26 15:57:00,
2013-02-26 10:03:00,51.9,40.5,29.63,WNW,299,6.0,8.0,65,0.00,,,0.01,Wunderground v.1.13,2013-02-26 16:03:00,
2013-02-26 10:08:00,51.9,40.1,29.64,WNW,292,6.0,8.0,64,0.00,,,0.01,Wunderground v.1.13,2013-02-26 16:08:00,
2013-02-26 10:14:00,52.2,40.4,29.64,NW,316,6.0,18.0,64,0.00,,,0.01,Wunderground v.1.13,2013-02-26 16:14:00,
2013-02-26 10:20:00,52.6,40.8,29.64,NW,323,6.0,6.0,64,0.00,,,0.01,Wunderground v.1.13,2013-02-26 16:20:00,
2013-02-26 10:25:00,52.8,40.5,29.65,NW,312,6.0,6.0,63,0.00,,,0.01,Wunderground v.1.13,2013-02-26 16:25:00,
2013-02-26 10:31:00,52.9,40.6,29.65,West,280,7.0,8.0,63,0.00,,,0.01,Wunderground v.1.13,2013-02-26 16:31:00,
2013-02-26 10:37:00,52.9,40.2,29.65,WNW,292,8.0,12.0,62,0.00,,,0.01,Wunderground v.1.13,2013-02-26 16:37:00,
2013-02-26 10:42:00,52.8,39.7,29.65,NW,305,9.0,12.0,61,0.00,,,0.01,Wunderground v.1.13,2013-02-26 16:42:00,
2013-02-26 10:48:00,52.9,40.2,29.65,WNW,296,8.0,8.0,62,0.00,,,0.01,Wunderground v.1.13,2013-02-26 16:48:00,
2013-02-26 10:53:00,53.2,39.7,29.66,NNW,328,8.0,12.0,60,0.00,,,0.01,Wunderground v.1.13,2013-02-26 16:53:00,
2013-02-26 10:59:00,53.3,39.8,29.66,NW,313,8.0,11.0,60,0.00,,,0.01,Wunderground v.1.13,2013-02-26 16:59:00,
2013-02-26 11:05:00,53.3,39.3,29.66,NW,312,9.0,11.0,59,0.00,,,0.01,Wunderground v.1.13,2013-02-26 17:05:00,
2013-02-26 11:10:00,53.5,39.5,29.66,NW,322,10.0,12.0,59,0.00,,,0.01,Wunderground v.1.13,2013-02-26 17:10:00,
2013-02-26 11:16:00,53.8,40.7,29.66,West,278,7.0,8.0,61,0.00,,,0.01,Wunderground v.1.13,2013-02-26 17:16:00,
2013-02-26 11:22:00,54.2,40.6,29.66,WNW,285,6.0,8.0,60,0.00,,,0.01,Wunderground v.1.13,2013-02-26 17:22:00,
2013-02-26 11:27:00,54.5,40.5,29.66,NW,322,6.0,11.0,59,0.00,,,0.01,Wunderground v.1.13,2013-02-26 17:27:00,
2013-02-26 11:33:00,54.7,41.1,29.66,WNW,299,7.0,12.0,60,0.00,,,0.01,Wunderground v.1.13,2013-02-26 17:33:00,
2013-02-26 11:38:00,54.7,39.8,29.65,NW,325,8.0,13.0,57,0.00,,,0.01,Wunderground v.1.13,2013-02-26 17:38:00,
2013-02-26 11:44:00,54.7,40.2,29.65,NW,316,9.0,16.0,58,0.00,,,0.01,Wunderground v.1.13,2013-02-26 17:44:00,
2013-02-26 11:50:00,55.1,40.6,29.65,WNW,302,8.0,8.0,58,0.00,,,0.01,Wunderground v.1.13,2013-02-26 17:50:00,
2013-02-26 11:56:00,55.3,40.3,29.65,NW,313,6.0,11.0,57,0.00,,,0.01,Wunderground v.1.13,2013-02-26 17:56:00,
2013-02-26 12:01:00,55.4,40.0,29.65,NW,308,7.0,8.0,56,0.00,,,0.01,Wunderground v.1.13,2013-02-26 18:01:00,
2013-02-26 12:07:00,55.7,40.7,29.65,WNW,299,7.0,9.0,57,0.00,,,0.01,Wunderground v.1.13,2013-02-26 18:07:00,
2013-02-26 12:12:00,55.9,41.3,29.65,NW,315,6.0,8.0,58,0.00,,,0.01,Wunderground v.1.13,2013-02-26 18:12:00,
2013-02-26 12:18:00,56.5,41.4,29.65,West,270,4.0,6.0,57,0.00,,,0.01,Wunderground v.1.13,2013-02-26 18:18:00,
2013-02-26 12:24:00,56.7,41.6,29.64,WNW,298,3.0,8.0,57,0.00,,,0.01,Wunderground v.1.13,2013-02-26 18:24:00,
2013-02-26 12:29:00,56.5,40.5,29.64,NNE,17,7.0,16.0,55,0.00,,,0.01,Wunderground v.1.13,2013-02-26 18:29:00,
2013-02-26 12:35:00,56.6,41.5,29.64,WNW,282,5.0,5.0,57,0.00,,,0.01,Wunderground v.1.13,2013-02-26 18:35:00,
2013-02-26 12:41:00,57.0,41.4,29.64,NNW,329,1.0,11.0,56,0.00,,,0.01,Wunderground v.1.13,2013-02-26 18:41:00,
2013-02-26 12:46:00,57.2,41.6,29.64,NW,325,4.0,6.0,56,0.00,,,0.01,Wunderground v.1.13,2013-02-26 18:46:00,
2013-02-26 12:52:00,57.3,41.7,29.63,WNW,291,4.0,6.0,56,0.00,,,0.01,Wunderground v.1.13,2013-02-26 18:52:00,
2013-02-26 12:57:00,57.5,41.9,29.63,WNW,294,4.0,6.0,56,0.00,,,0.01,Wunderground v.1.13,2013-02-26 18:57:00,
2013-02-26 13:03:00,58.1,42.9,29.63,NW,306,2.0,4.0,57,0.00,,,0.01,Wunderground v.1.13,2013-02-26 19:03:00,
2013-02-26 13:09:00,58.3,42.7,29.62,WNW,302,2.0,9.0,56,0.00,,,0.01,Wunderground v.1.13,2013-02-26 19:09:00,
2013-02-26 13:14:00,58.1,42.0,29.62,NW,305,4.0,10.0,55,0.00,,,0.01,Wunderground v.1.13,2013-02-26 19:14:00,
2013-02-26 13:20:00,58.3,42.7,29.62,West,270,3.0,12.0,56,0.00,,,0.01,Wunderground v.1.13,2013-02-26 19:20:00,
2013-02-26 13:25:00,58.3,42.2,29.61,West,272,3.0,11.0,55,0.00,,,0.01,Wunderground v.1.13,2013-02-26 19:25:00,
2013-02-26 13:31:00,58.4,42.3,29.61,NW,323,5.0,8.0,55,0.00,,,0.01,Wunderground v.1.13,2013-02-26 19:31:00,
2013-02-26 13:37:00,58.6,42.0,29.61,NW,320,4.0,7.0,54,0.00,,,0.01,Wunderground v.1.13,2013-02-26 19:37:00,
2013-02-26 13:42:00,59.0,43.3,29.61,NW,316,2.0,4.0,56,0.00,,,0.01,Wunderground v.1.13,2013-02-26 19:42:00,
2013-02-26 13:48:00,59.6,44.3,29.61,NW,311,0.0,3.0,57,0.00,,,0.01,Wunderground v.1.13,2013-02-26 19:48:00,
2013-02-26 13:54:00,60.2,44.4,29.61,WNW,294,1.0,2.0,56,0.00,,,0.01,Wunderground v.1.13,2013-02-26 19:54:00,
2013-02-26 13:59:00,60.1,42.9,29.61,NW,305,4.0,10.0,53,0.00,,,0.01,Wunderground v.1.13,2013-02-26 19:59:00,
2013-02-26 14:05:00,59.8,43.1,29.61,West,268,4.0,4.0,54,0.00,,,0.01,Wunderground v.1.13,2013-02-26 20:05:00,
2013-02-26 14:10:00,60.1,43.4,29.61,SSW,192,1.0,1.0,54,0.00,,,0.01,Wunderground v.1.13,2013-02-26 20:10:00,
2013-02-26 14:16:00,60.2,44.4,29.61,WNW,295,3.0,3.0,56,0.00,,,0.01,Wunderground v.1.13,2013-02-26 20:16:00,
2013-02-26 14:22:00,60.4,44.6,29.61,WSW,251,3.0,3.0,56,0.00,,,0.01,Wunderground v.1.13,2013-02-26 20:22:00,
2013-02-26 14:27:00,60.5,44.2,29.61,West,275,1.0,8.0,55,0.00,,,0.01,Wunderground v.1.13,2013-02-26 20:27:00,
2013-02-26 14:33:00,60.2,44.4,29.61,NW,323,4.0,5.0,56,0.00,,,0.01,Wunderground v.1.13,2013-02-26 20:33:00,
2013-02-26 14:38:00,60.4,44.6,29.61,WNW,288,3.0,4.0,56,0.00,,,0.01,Wunderground v.1.13,2013-02-26 20:38:00,
2013-02-26 14:44:00,60.7,44.9,29.61,West,272,2.0,10.0,56,0.00,,,0.01,Wunderground v.1.13,2013-02-26 20:44:00,
2013-02-26 14:50:00,60.5,45.2,29.61,South,184,3.0,3.0,57,0.00,,,0.01,Wunderground v.1.13,2013-02-26 20:50:00,
2013-02-26 14:55:00,60.7,45.8,29.61,West,261,1.0,1.0,58,0.00,,,0.01,Wunderground v.1.13,2013-02-26 20:55:00,
2013-02-26 15:01:00,60.5,45.6,29.61,WNW,291,1.0,1.0,58,0.00,,,0.01,Wunderground v.1.13,2013-02-26 21:01:00,
2013-02-26 15:07:00,60.4,45.1,29.62,NNW,332,1.0,6.0,57,0.00,,,0.01,Wunderground v.1.13,2013-02-26 21:07:00,
2013-02-26 15:13:00,59.9,45.1,29.62,South,188,3.0,3.0,58,0.00,,,0.01,Wunderground v.1.13,2013-02-26 21:13:00,
2013-02-26 15:19:00,59.8,45.0,29.62,NNW,339,1.0,3.0,58,0.00,,,0.01,Wunderground v.1.13,2013-02-26 21:19:00,
2013-02-26 15:24:00,59.8,45.4,29.63,WSW,254,1.0,1.0,59,0.00,,,0.01,Wunderground v.1.13,2013-02-26 21:24:00,
2013-02-26 15:30:00,59.6,44.8,29.63,NW,304,1.0,3.0,58,0.00,,,0.01,Wunderground v.1.13,2013-02-26 21:30:00,
2013-02-26 15:35:00,59.5,45.2,29.63,NW,318,1.0,1.0,59,0.00,,,0.01,Wunderground v.1.13,2013-02-26 21:35:00,
2013-02-26 15:41:00,59.0,44.2,29.63,SW,220,2.0,2.0,58,0.00,,,0.01,Wunderground v.1.13,2013-02-26 21:41:00,
2013-02-26 15:47:00,58.9,45.0,29.63,WSW,241,2.0,3.0,60,0.00,,,0.01,Wunderground v.1.13,2013-02-26 21:47:00,
2013-02-26 15:52:00,58.7,44.8,29.63,WNW,287,2.0,2.0,60,0.00,,,0.01,Wunderground v.1.13,2013-02-26 21:52:00,
2013-02-26 15:58:00,58.4,44.1,29.63,SE,126,2.0,8.0,59,0.00,,,0.01,Wunderground v.1.13,2013-02-26 21:58:00,
2013-02-26 16:04:00,58.3,44.5,29.63,WSW,257,2.0,2.0,60,0.00,,,0.01,Wunderground v.1.13,2013-02-26 22:04:00,
2013-02-26 16:09:00,58.1,44.3,29.64,West,270,1.0,2.0,60,0.00,,,0.01,Wunderground v.1.13,2013-02-26 22:09:00,
2013-02-26 16:15:00,58.1,44.3,29.64,West,265,0.0,0.0,60,0.00,,,0.01,Wunderground v.1.13,2013-02-26 22:15:00,
2013-02-26 16:20:00,57.8,44.0,29.64,NW,313,2.0,5.0,60,0.00,,,0.01,Wunderground v.1.13,2013-02-26 22:20:00,
2013-02-26 16:26:00,57.5,43.7,29.65,North,354,3.0,3.0,60,0.00,,,0.01,Wunderground v.1.13,2013-02-26 22:26:00,
2013-02-26 16:32:00,57.2,43.9,29.65,West,271,1.0,2.0,61,0.00,,,0.01,Wunderground v.1.13,2013-02-26 22:32:00,
2013-02-26 16:37:00,57.2,44.3,29.66,SSW,192,1.0,1.0,62,0.00,,,0.01,Wunderground v.1.13,2013-02-26 22:37:00,
2013-02-26 16:43:00,57.2,43.4,29.66,WNW,301,2.0,9.0,60,0.00,,,0.01,Wunderground v.1.13,2013-02-26 22:43:00,
2013-02-26 16:48:00,56.9,43.2,29.66,West,261,3.0,5.0,60,0.00,,,0.01,Wunderground v.1.13,2013-02-26 22:48:00,
2013-02-26 16:54:00,56.6,43.3,29.66,WNW,288,1.0,3.0,61,0.00,,,0.01,Wunderground v.1.13,2013-02-26 22:54:00,
2013-02-26 16:59:00,56.3,43.0,29.66,West,275,1.0,5.0,61,0.00,,,0.01,Wunderground v.1.13,2013-02-26 22:59:00,
2013-02-26 17:05:00,56.2,43.3,29.66,WNW,282,2.0,3.0,62,0.00,,,0.01,Wunderground v.1.13,2013-02-26 23:05:00,
2013-02-26 17:11:00,56.0,43.6,29.67,WNW,282,1.0,1.0,63,0.00,,,0.01,Wunderground v.1.13,2013-02-26 23:11:00,
2013-02-26 17:16:00,55.9,43.5,29.67,South,179,0.0,1.0,63,0.00,,,0.01,Wunderground v.1.13,2013-02-26 23:16:00,
2013-02-26 17:22:00,55.7,43.3,29.67,WNW,302,1.0,1.0,63,0.00,,,0.01,Wunderground v.1.13,2013-02-26 23:22:00,
2013-02-26 17:28:00,55.6,43.6,29.67,NW,311,1.0,2.0,64,0.00,,,0.01,Wunderground v.1.13,2013-02-26 23:28:00,
2013-02-26 17:33:00,55.3,43.3,29.67,WNW,291,2.0,2.0,64,0.00,,,0.01,Wunderground v.1.13,2013-02-26 23:33:00,
2013-02-26 17:39:00,55.1,43.1,29.68,NW,312,2.0,3.0,64,0.00,,,0.01,Wunderground v.1.13,2013-02-26 23:39:00,
2013-02-26 17:44:00,55.0,43.0,29.68,NW,309,1.0,2.0,64,0.00,,,0.01,Wunderground v.1.13,2013-02-26 23:44:00,
2013-02-26 17:50:00,54.8,42.9,29.68,WNW,298,1.0,1.0,64,0.00,,,0.01,Wunderground v.1.13,2013-02-26 23:50:00,
2013-02-26 17:56:00,54.7,43.2,29.69,WNW,301,1.0,1.0,65,0.00,,,0.01,Wunderground v.1.13,2013-02-26 23:56:00,
2013-02-26 18:01:00,54.5,43.0,29.69,WNW,296,1.0,1.0,65,0.00,,,0.01,Wunderground v.1.13,2013-02-27 00:01:00,
2013-02-26 18:07:00,54.5,43.4,29.70,WNW,296,0.0,0.0,66,0.00,,,0.01,Wunderground v.1.13,2013-02-27 00:07:00,
2013-02-26 18:12:00,54.4,43.3,29.70,WNW,299,0.0,2.0,66,0.00,,,0.01,Wunderground v.1.13,2013-02-27 00:12:00,
2013-02-26 18:18:00,54.2,42.7,29.70,NW,313,1.0,2.0,65,0.00,,,0.01,Wunderground v.1.13,2013-02-27 00:18:00,
2013-02-26 18:24:00,54.1,43.0,29.71,WNW,299,2.0,2.0,66,0.00,,,0.01,Wunderground v.1.13,2013-02-27 00:24:00,
2013-02-26 18:29:00,54.1,43.0,29.71,NW,315,2.0,5.0,66,0.00,,,0.01,Wunderground v.1.13,2013-02-27 00:29:00,
2013-02-26 18:35:00,53.9,42.8,29.71,WNW,287,2.0,2.0,66,0.00,,,0.01,Wunderground v.1.13,2013-02-27 00:35:00,
2013-02-26 18:41:00,53.9,42.8,29.72,WNW,302,0.0,1.0,66,0.00,,,0.01,Wunderground v.1.13,2013-02-27 00:41:00,
2013-02-26 18:46:00,53.8,43.1,29.72,WNW,291,1.0,1.0,67,0.00,,,0.01,Wunderground v.1.13,2013-02-27 00:46:00,
2013-02-26 18:52:00,53.6,42.9,29.73,WNW,299,1.0,1.0,67,0.00,,,0.01,Wunderground v.1.13,2013-02-27 00:52:00,
2013-02-26 18:57:00,53.6,42.9,29.73,NW,306,0.0,1.0,67,0.00,,,0.01,Wunderground v.1.13,2013-02-27 00:57:00,
2013-02-26 19:03:00,53.6,42.9,29.73,WNW,299,0.0,0.0,67,0.00,,,0.01,Wunderground v.1.13,2013-02-27 01:03:00,
2013-02-26 19:09:00,53.6,43.3,29.74,WNW,299,0.0,0.0,68,0.00,,,0.01,Wunderground v.1.13,2013-02-27 01:09:00,
2013-02-26 19:14:00,53.6,43.3,29.74,WNW,301,1.0,3.0,68,0.00,,,0.01,Wunderground v.1.13,2013-02-27 01:14:00,
2013-02-26 19:20:00,53.6,43.3,29.74,WNW,302,1.0,1.0,68,0.00,,,0.01,Wunderground v.1.13,2013-02-27 01:20:00,
2013-02-26 19:26:00,53.6,43.7,29.75,West,264,0.0,0.0,69,0.00,,,0.01,Wunderground v.1.13,2013-02-27 01:26:00,
2013-02-26 19:32:00,53.5,43.2,29.75,WSW,240,1.0,1.0,68,0.00,,,0.01,Wunderground v.1.13,2013-02-27 01:32:00,
2013-02-26 19:37:00,53.5,43.6,29.75,WNW,298,0.0,0.0,69,0.00,,,0.01,Wunderground v.1.13,2013-02-27 01:37:00,
2013-02-26 19:43:00,53.5,43.6,29.75,WNW,296,0.0,1.0,69,0.00,,,0.01,Wunderground v.1.13,2013-02-27 01:43:00,
2013-02-26 19:49:00,53.5,43.6,29.75,WNW,301,0.0,0.0,69,0.00,,,0.01,Wunderground v.1.13,2013-02-27 01:49:00,
2013-02-26 19:54:00,53.5,43.6,29.76,NW,305,1.0,3.0,69,0.00,,,0.01,Wunderground v.1.13,2013-02-27 01:54:00,
2013-02-26 20:00:00,53.5,43.6,29.76,NW,304,1.0,1.0,69,0.00,,,0.01,Wunderground v.1.13,2013-02-27 02:00:00,
2013-02-26 20:05:00,53.5,44.0,29.76,WNW,291,1.0,1.0,70,0.00,,,0.01,Wunderground v.1.13,2013-02-27 02:05:00,
2013-02-26 20:11:00,53.5,44.0,29.76,WNW,294,1.0,1.0,70,0.00,,,0.01,Wunderground v.1.13,2013-02-27 02:11:00,
2013-02-26 20:17:00,53.5,44.0,29.76,WNW,289,0.0,0.0,70,0.00,,,0.01,Wunderground v.1.13,2013-02-27 02:17:00,
2013-02-26 20:23:00,53.5,44.0,29.77,WNW,295,0.0,0.0,70,0.00,,,0.01,Wunderground v.1.13,2013-02-27 02:23:00,
2013-02-26 20:28:00,53.5,44.0,29.77,West,275,0.0,0.0,70,0.00,,,0.01,Wunderground v.1.13,2013-02-27 02:28:00,
2013-02-26 20:34:00,53.5,44.0,29.77,WNW,291,0.0,4.0,70,0.00,,,0.01,Wunderground v.1.13,2013-02-27 02:34:00,
2013-02-26 20:40:00,53.3,43.8,29.77,WNW,291,0.0,0.0,70,0.00,,,0.01,Wunderground v.1.13,2013-02-27 02:40:00,
2013-02-26 20:45:00,53.3,44.1,29.77,WNW,291,0.0,0.0,71,0.00,,,0.01,Wunderground v.1.13,2013-02-27 02:45:00,
2013-02-26 20:51:00,53.3,43.8,29.78,WNW,291,0.0,0.0,70,0.00,,,0.01,Wunderground v.1.13,2013-02-27 02:51:00,
2013-02-26 20:56:00,53.3,44.1,29.78,NW,304,0.0,0.0,71,0.00,,,0.01,Wunderground v.1.13,2013-02-27 02:56:00,
2013-02-26 21:02:00,53.2,43.7,29.78,NW,304,0.0,0.0,70,0.00,,,0.01,Wunderground v.1.13,2013-02-27 03:02:00,
2013-02-26 21:08:00,53.2,44.0,29.79,WNW,302,0.0,3.0,71,0.00,,,0.01,Wunderground v.1.13,2013-02-27 03:08:00,
2013-02-26 21:13:00,53.3,44.1,29.79,WNW,302,0.0,0.0,71,0.00,,,0.01,Wunderground v.1.13,2013-02-27 03:13:00,
2013-02-26 21:19:00,53.2,44.0,29.79,WNW,302,0.0,1.0,71,0.00,,,0.01,Wunderground v.1.13,2013-02-27 03:19:00,
2013-02-26 21:24:00,53.2,44.0,29.80,WNW,302,0.0,0.0,71,0.00,,,0.01,Wunderground v.1.13,2013-02-27 03:24:00,
2013-02-26 21:30:00,53.2,44.0,29.80,WNW,302,0.0,0.0,71,0.00,,,0.01,Wunderground v.1.13,2013-02-27 03:30:00,
2013-02-26 21:36:00,53.2,44.4,29.80,WNW,302,0.0,0.0,72,0.00,,,0.01,Wunderground v.1.13,2013-02-27 03:36:00,
2013-02-26 21:41:00,53.2,44.0,29.80,WNW,302,0.0,0.0,71,0.00,,,0.01,Wunderground v.1.13,2013-02-27 03:41:00,
2013-02-26 21:47:00,53.1,44.3,29.80,WNW,302,0.0,0.0,72,0.00,,,0.01,Wunderground v.1.13,2013-02-27 03:47:00,
2013-02-26 21:53:00,52.9,44.1,29.81,WNW,302,0.0,0.0,72,0.00,,,0.01,Wunderground v.1.13,2013-02-27 03:53:00,
2013-02-26 21:58:00,52.8,44.0,29.81,WNW,302,0.0,0.0,72,0.00,,,0.01,Wunderground v.1.13,2013-02-27 03:58:00,
2013-02-26 22:04:00,52.8,44.0,29.81,WNW,302,0.0,0.0,72,0.00,,,0.01,Wunderground v.1.13,2013-02-27 04:04:00,
2013-02-26 22:10:00,52.6,43.8,29.81,WNW,302,0.0,0.0,72,0.00,,,0.01,Wunderground v.1.13,2013-02-27 04:10:00,
2013-02-26 22:15:00,52.6,43.8,29.81,WNW,302,0.0,0.0,72,0.00,,,0.01,Wunderground v.1.13,2013-02-27 04:15:00,
2013-02-26 22:21:00,52.5,43.7,29.81,WNW,302,0.0,0.0,72,0.00,,,0.01,Wunderground v.1.13,2013-02-27 04:21:00,
2013-02-26 22:26:00,52.5,44.1,29.81,WNW,302,0.0,0.0,73,0.00,,,0.01,Wunderground v.1.13,2013-02-27 04:26:00,
2013-02-26 22:32:00,52.5,44.1,29.81,WNW,302,0.0,0.0,73,0.00,,,0.01,Wunderground v.1.13,2013-02-27 04:32:00,
2013-02-26 22:38:00,52.5,44.1,29.82,WNW,302,0.0,0.0,73,0.00,,,0.01,Wunderground v.1.13,2013-02-27 04:38:00,
2013-02-26 22:43:00,52.3,43.9,29.82,WNW,302,0.0,0.0,73,0.00,,,0.01,Wunderground v.1.13,2013-02-27 04:43:00,
2013-02-26 22:49:00,52.2,44.2,29.82,WNW,302,0.0,0.0,74,0.00,,,0.01,Wunderground v.1.13,2013-02-27 04:49:00,
2013-02-26 22:54:00,52.2,44.2,29.82,WNW,302,0.0,0.0,74,0.00,,,0.01,Wunderground v.1.13,2013-02-27 04:54:00,
2013-02-26 23:00:00,51.9,43.9,29.82,WNW,302,0.0,0.0,74,0.00,,,0.01,Wunderground v.1.13,2013-02-27 05:00:00,
2013-02-26 23:01:00,51.9,43.9,29.82,WNW,302,0.0,0.0,74,0.00,,,0.01,Wunderground v.1.13,2013-02-27 05:01:00,
2013-02-26 23:02:00,51.9,43.9,29.82,WNW,302,0.0,0.0,74,0.00,,,0.01,Wunderground v.1.13,2013-02-27 05:02:00,
2013-02-26 23:03:00,51.9,43.9,29.82,WNW,302,0.0,0.0,74,0.00,,,0.01,Wunderground v.1.13,2013-02-27 05:03:00,
2013-02-26 23:09:00,51.7,43.7,29.82,WNW,302,0.0,0.0,74,0.00,,,0.01,Wunderground v.1.13,2013-02-27 05:09:00,
2013-02-26 23:15:00,51.7,43.7,29.82,WNW,302,0.0,0.0,74,0.00,,,0.01,Wunderground v.1.13,2013-02-27 05:15:00,
2013-02-26 23:20:00,51.7,43.7,29.82,WNW,302,0.0,0.0,74,0.00,,,0.01,Wunderground v.1.13,2013-02-27 05:20:00,
2013-02-26 23:26:00,51.6,43.6,29.83,WNW,302,0.0,0.0,74,0.00,,,0.01,Wunderground v.1.13,2013-02-27 05:26:00,
2013-02-26 23:32:00,51.4,43.7,29.83,WNW,302,0.0,0.0,75,0.00,,,0.01,Wunderground v.1.13,2013-02-27 05:32:00,
2013-02-26 23:37:00,51.4,43.7,29.83,WNW,302,0.0,0.0,75,0.00,,,0.01,Wunderground v.1.13,2013-02-27 05:37:00,
2013-02-26 23:43:00,51.3,43.6,29.83,WNW,302,0.0,0.0,75,0.00,,,0.01,Wunderground v.1.13,2013-02-27 05:43:00,
2013-02-26 23:49:00,51.3,43.6,29.83,WNW,302,0.0,0.0,75,0.00,,,0.01,Wunderground v.1.13,2013-02-27 05:49:00,
2013-02-26 23:54:00,51.3,44.0,29.83,WNW,302,0.0,0.0,76,0.00,,,0.01,Wunderground v.1.13,2013-02-27 05:54:00,